• Join FlightAware (Why Join?)
  • Login
  • US Flag 
10:41PM EST


 

Airport Tracker/Info


-or-


 

Live Flight TrackerFlight Track Log ✈ UAL139 ✈ 29-Aug-2013 ✈ KDEN - RJAA / NRT

Flight Track Log - Related Links

Times and Time Zones

All times are in EDT time to prevent confusion due to time zone crossing. See the UAL139 flight status page for this flight to view local times or setup timezone preferences in your user account.

Time Position Orientation Groundspeed Altitude Reporting Facility
EDT Latitude Longitude Course Direction KTS MPH feet Rate Location/Type
02:55PM 39.8730 -104.6960 353° North 175 201 5,100  Level FlightAware
02:55PM 39.8960 -104.6960 360° North 213 245 5,400 1,500 Climbing FlightAware
02:56PM 39.9310 -104.7000 355° North 232 267 6,600 1,500 Climbing FlightAware
02:56PM 39.9580 -104.7070 349° North 257 296 6,900 900 Climbing FlightAware
02:56PM 39.9760 -104.7130 346° North 273 314 7,200 1,260 Climbing FlightAware
02:57PM 39.9970 -104.7180 350° North 284 327 7,600 1,920 Climbing FlightAware
02:57PM 40.0240 -104.7260 347° North 290 334 8,400 2,160 Climbing FlightAware
02:57PM 40.0570 -104.7370 346° North 291 335 9,300 1,920 Climbing FlightAware
02:58PM 40.1030 -104.7580 341° North 313 360 10,300 2,040 Climbing FlightAware
02:58PM 40.1450 -104.7780 340° North 316 364 11,600 1,620 Climbing FlightAware
02:59PM 40.1930 -104.8000 341° North 350 403 12,100 1,380 Climbing FlightAware
03:00PM 40.2490 -104.8260 340° North 364 419 13,200 1,980 Climbing FlightAware
03:00PM 40.3110 -104.8550 340° North 373 429 14,500 1,980 Climbing FlightAware
03:01PM 40.3680 -104.8810 341° North 381 438 15,700 1,980 Climbing FlightAware
03:01PM 40.4210 -104.9060 340° North 387 445 16,800 1,920 Climbing FlightAware
03:02PM 40.4750 -104.9310 341° North 395 455 17,800 1,980 Climbing FlightAware
03:03PM 40.5480 -104.9660 340° North 401 461 19,200 1,860 Climbing FlightAware
03:03PM 40.6110 -104.9950 341° North 410 472 20,200 1,500 Climbing FlightAware
03:04PM 40.6720 -105.0240 340° North 418 481 21,000 1,500 Climbing FlightAware
03:04PM 40.7290 -105.0510 340° North 422 486 21,900 1,620 Climbing FlightAware
03:05PM 40.7930 -105.0990 330° Northwest 425 489 22,900 1,440 Climbing FlightAware
03:05PM 40.8430 -105.1560 319° Northwest 431 496 23,600 1,320 Climbing FlightAware
03:06PM 40.8920 -105.2120 319° Northwest 436 502 24,400 1,380 Climbing FlightAware
03:07PM 40.9540 -105.2810 320° Northwest 441 507 25,300 1,380 Climbing FlightAware
03:07PM 41.0100 -105.3450 319° Northwest 446 513 26,200 1,320 Climbing FlightAware
03:08PM 41.0650 -105.4090 319° Northwest 448 516 26,900 1,200 Climbing FlightAware
03:08PM 41.1190 -105.4700 320° Northwest 453 521 27,600 1,200 Climbing FlightAware
03:09PM 41.1680 -105.5440 311° West 453 521 28,300 1,200 Climbing FlightAware
03:10PM 41.2060 -105.6110 307° West 457 526 28,900 1,140 Climbing FlightAware
03:10PM 41.2550 -105.6980 307° West 462 532 29,600 960 Climbing FlightAware
03:11PM 41.2860 -105.7590 304° West 467 537 30,000 900 Climbing FlightAware
03:11PM 41.3430 -105.8620 306° West 472 543 30,700 1,020 Climbing FlightAware
03:12PM 41.3940 -105.9510 307° West 474 545 31,400 960 Climbing FlightAware
03:12PM 41.4340 -106.0220 307° West 475 547 31,800 840 Climbing FlightAware
03:13PM 41.4820 -106.1090 306° West 478 550 32,400 900 Climbing FlightAware
03:14PM 41.5280 -106.1920 307° West 482 555 32,900 840 Climbing FlightAware
03:14PM 41.5780 -106.2820 307° West 484 557 33,400 1,020 Climbing FlightAware
03:15PM 41.6130 -106.3460 306° West 481 554 34,000 540 Climbing FlightAware
03:15PM 41.6560 -106.4260 306° West 481 554 34,000  Level FlightAware
03:16PM 41.6990 -106.5040 306° West 481 554 34,000  Level FlightAware
03:17PM 41.7390 -106.5780 306° West 481 554 34,000  Level FlightAware
03:17PM 41.7800 -106.6530 306° West 481 554 34,000  Level FlightAware
03:18PM 41.8190 -106.7250 306° West 481 554 34,000  Level FlightAware
03:18PM 41.8590 -106.7990 306° West 481 554 34,000  Level FlightAware
03:19PM 41.8990 -106.8730 306° West 481 554 34,000  Level FlightAware
03:20PM 41.9400 -106.9490 306° West 481 554 34,000  Level FlightAware
03:20PM 41.9810 -107.0250 306° West 481 554 34,000  Level FlightAware
03:21PM 42.0210 -107.1000 306° West 481 554 34,000  Level FlightAware
03:21PM 42.0610 -107.1740 306° West 481 554 34,000  Level FlightAware
03:22PM 42.1020 -107.2500 306° West 481 554 34,000  Level FlightAware
03:23PM 42.1420 -107.3240 306° West 481 554 34,000  Level FlightAware
03:23PM 42.1820 -107.3990 306° West 481 554 34,000  Level FlightAware
03:24PM 42.2220 -107.4730 306° West 481 554 34,000  Level FlightAware
03:24PM 42.2620 -107.5480 306° West 481 554 34,000 2,760 Level FlightAware
03:25PM 42.4061 -107.8200 306° West 461 531 38,000 2,100 Climbing Salt Lake Center
03:26PM 42.4875 -107.9775 305° West 459 528 38,000  Level Salt Lake Center
03:27PM 42.5589 -108.1131 306° West 462 532 38,000  Level Salt Lake Center
03:28PM 42.6403 -108.2711 305° West 460 529 38,000  Level Salt Lake Center
03:29PM 42.7103 -108.4081 305° West 463 533 38,000  Level Salt Lake Center
03:30PM 42.7925 -108.5669 305° West 462 532 38,000  Level Salt Lake Center
03:32PM 42.8619 -108.7036 305° West 460 529 38,000  Level Salt Lake Center
03:33PM 42.9422 -108.8614 305° West 456 525 38,000  Level Salt Lake Center
03:34PM 43.0069 -108.9900 305° West 456 525 38,000  Level Salt Lake Center
03:35PM 43.0786 -109.1333 304° West 457 526 38,000  Level Salt Lake Center
03:36PM 43.1661 -109.3083 304° West 463 533 38,000  Level Salt Lake Center
03:37PM 43.2372 -109.4492 305° West 456 525 38,000  Level Salt Lake Center
03:38PM 43.3086 -109.5944 304° West 458 527 38,000  Level Salt Lake Center
03:39PM 43.3806 -109.7392 304° West 458 527 38,000  Level Salt Lake Center
03:40PM 43.4578 -109.8911 305° West 456 525 38,000  Level Salt Lake Center
03:41PM 43.5244 -110.0308 303° West 457 526 38,000  Level Salt Lake Center
03:42PM 43.6047 -110.1936 304° West 462 532 38,000  Level Salt Lake Center
03:43PM 43.6733 -110.3339 304° West 461 531 38,000  Level Salt Lake Center
03:44PM 43.7519 -110.4997 303° West 461 531 38,000  Level Salt Lake Center
03:45PM 43.8186 -110.6442 303° West 465 535 38,000  Level Salt Lake Center
03:46PM 43.8986 -110.8072 304° West 459 528 38,000  Level Salt Lake Center
03:47PM 43.9661 -110.9497 303° West 461 531 38,000  Level Salt Lake Center
03:48PM 44.0433 -111.1150 303° West 457 526 38,000  Level Salt Lake Center
03:49PM 44.1103 -111.2569 303° West 457 526 38,000  Level Salt Lake Center
03:50PM 44.1756 -111.3997 303° West 454 522 38,000  Level Salt Lake Center
03:51PM 44.2544 -111.5675 303° West 458 527 38,000  Level Salt Lake Center
03:52PM 44.3208 -111.7139 302° West 461 531 38,000  Level Salt Lake Center
03:53PM 44.3992 -111.8825 303° West 460 529 38,000  Level Salt Lake Center
03:54PM 44.4653 -112.0275 303° West 459 528 38,000  Level Salt Lake Center
03:55PM 44.5422 -112.1958 303° West 458 527 38,000  Level Salt Lake Center
03:56PM 44.6086 -112.3406 303° West 459 528 38,000  Level Salt Lake Center
03:57PM 44.6558 -112.4953 293° West 455 524 38,000  Level Salt Lake Center
03:58PM 44.7078 -112.6747 292° West 447 514 38,000  Level Salt Lake Center
03:59PM 44.7533 -112.8300 292° West 448 516 38,000  Level Salt Lake Center
04:00PM 44.8283 -113.0028 302° West 458 527 38,000  Level Salt Lake Center
04:01PM 44.8928 -113.1497 302° West 460 529 38,000  Level Salt Lake Center
04:03PM 44.9708 -113.3197 303° West 461 531 38,000  Level Salt Lake Center
04:04PM 45.0381 -113.4661 303° West 463 533 38,000  Level Salt Lake Center
04:05PM 45.1147 -113.6369 302° West 461 531 38,000  Level Salt Lake Center
04:06PM 45.1817 -113.7828 303° West 461 531 38,000  Level Salt Lake Center
04:07PM 45.2597 -113.9528 303° West 461 531 38,000  Level Salt Lake Center
04:08PM 45.3294 -114.0972 305° West 462 532 38,000  Level Salt Lake Center
04:09PM 45.4050 -114.2708 302° West 461 531 38,000  Level Salt Lake Center
04:10PM 45.4683 -114.4200 301° West 460 529 38,000  Level Salt Lake Center
04:15PM 45.8290 -115.2870 301° West 453 521 38,000  Level FlightAware
04:16PM 45.8670 -115.3800 300° West 455 524 38,000  Level FlightAware
04:16PM 45.9020 -115.4660 300° West 455 524 38,000  Level FlightAware
04:17PM 45.9450 -115.5700 301° West 454 522 38,000  Level FlightAware
04:18PM 45.9780 -115.6510 300° West 456 525 38,000  Level FlightAware
04:18PM 46.0160 -115.7460 300° West 457 526 38,000  Level FlightAware
04:19PM 46.0550 -115.8430 300° West 456 525 38,000  Level FlightAware
04:19PM 46.0880 -115.9250 300° West 452 520 38,000  Level FlightAware
04:20PM 46.1250 -116.0180 300° West 453 521 38,000  Level FlightAware
04:21PM 46.1630 -116.1130 300° West 454 522 38,000  Level FlightAware
04:21PM 46.1980 -116.2000 300° West 457 526 38,000  Level FlightAware
04:22PM 46.2380 -116.3030 299° West 459 528 38,000  Level FlightAware
04:22PM 46.2690 -116.3820 300° West 460 529 38,000  Level FlightAware
04:23PM 46.3010 -116.4660 299° West 460 529 38,000  Level FlightAware
04:24PM 46.3330 -116.5510 299° West 460 529 38,000  Level FlightAware
04:24PM 46.3670 -116.6380 300° West 460 529 38,000  Level FlightAware
04:25PM 46.4310 -116.7950 301° West 471 542 38,000  Level FlightAware
04:25PM 46.4680 -116.8910 299° West 471 542 38,000  Level FlightAware
04:26PM 46.5000 -116.9750 299° West 471 542 38,000  Level FlightAware
04:27PM 46.5340 -117.0620 300° West 471 542 38,000  Level FlightAware
04:27PM 46.5660 -117.1470 299° West 471 542 38,000  Level FlightAware
04:28PM 46.6000 -117.2370 299° West 471 542 38,000  Level FlightAware
04:28PM 46.6320 -117.3220 299° West 471 542 38,000  Level FlightAware
04:29PM 46.6630 -117.4020 299° West 471 542 38,000  Level FlightAware
04:30PM 46.6960 -117.4890 299° West 471 542 38,000  Level FlightAware
04:30PM 46.7290 -117.5770 299° West 471 542 38,000  Level FlightAware
04:31PM 46.7620 -117.6620 300° West 471 542 38,000  Level FlightAware
04:31PM 46.8570 -117.9120 299° West 483 556 38,000  Level FlightAware
04:32PM 46.9050 -118.0430 298° West 482 555 38,000  Level FlightAware
04:33PM 46.9400 -118.1370 299° West 481 554 38,000  Level FlightAware
04:33PM 46.9850 -118.2590 298° West 481 554 38,000  Level FlightAware
04:34PM 47.0230 -118.3620 298° West 483 556 38,000  Level FlightAware
04:35PM 47.0550 -118.4500 298° West 485 558 38,000  Level FlightAware
04:35PM 47.0920 -118.5510 298° West 485 558 38,000  Level FlightAware
04:36PM 47.1330 -118.6640 298° West 486 559 38,000  Level FlightAware
04:36PM 47.1787 -118.7900 298° West 487 560 38,000  Level FlightAware ADS-B
04:37PM 47.2126 -118.8840 298° West 490 564 38,000  Level FlightAware ADS-B
04:38PM 47.2453 -118.9760 298° West 489 563 38,000  Level FlightAware ADS-B
04:38PM 47.2773 -119.0650 298° West 485 558 38,000  Level FlightAware ADS-B
04:39PM 47.3087 -119.1540 298° West 483 556 38,000  Level FlightAware ADS-B
04:39PM 47.3414 -119.2450 298° West 482 555 38,000  Level FlightAware ADS-B
04:40PM 47.3745 -119.3390 298° West 483 556 38,000  Level FlightAware ADS-B
04:40PM 47.4055 -119.4270 298° West 486 559 38,000  Level FlightAware ADS-B
04:41PM 47.4372 -119.5170 298° West 486 559 38,000  Level FlightAware ADS-B
04:41PM 47.4689 -119.6080 297° West 488 562 38,000  Level FlightAware ADS-B
04:42PM 47.5020 -119.7020 298° West 489 563 38,000  Level FlightAware ADS-B
04:42PM 47.5333 -119.7920 297° West 492 566 38,000  Level FlightAware ADS-B
04:43PM 47.5650 -119.8840 297° West 493 567 38,000  Level FlightAware ADS-B
04:43PM 47.5960 -119.9730 297° West 492 566 38,000  Level FlightAware ADS-B
04:44PM 47.6275 -120.0650 297° West 490 564 38,000  Level FlightAware ADS-B
04:44PM 47.6671 -120.1800 297° West 487 560 38,000  Level FlightAware ADS-B
04:45PM 47.6977 -120.2700 297° West 486 559 38,000  Level FlightAware ADS-B
04:45PM 47.7282 -120.3600 297° West 486 559 38,000  Level FlightAware ADS-B
04:46PM 47.7582 -120.4480 297° West 484 557 38,000  Level FlightAware ADS-B
04:46PM 47.7892 -120.5400 297° West 485 558 38,000  Level FlightAware ADS-B
04:47PM 47.8196 -120.6300 297° West 487 560 38,000  Level FlightAware ADS-B
04:47PM 47.8496 -120.7200 296° West 487 560 38,000  Level FlightAware ADS-B
04:48PM 47.8801 -120.8110 297° West 486 559 38,000  Level FlightAware ADS-B
04:48PM 47.9103 -120.9010 297° West 484 557 38,000  Level FlightAware ADS-B
04:49PM 47.9402 -120.9910 296° West 484 557 38,000  Level FlightAware ADS-B
04:49PM 47.9703 -121.0830 296° West 483 556 38,000  Level FlightAware ADS-B
04:50PM 47.9999 -121.1720 296° West 481 554 38,000  Level FlightAware ADS-B
04:50PM 48.0293 -121.2620 296° West 483 556 38,000  Level FlightAware ADS-B
04:51PM 48.0588 -121.3520 296° West 483 556 38,000  Level FlightAware ADS-B
04:51PM 48.0894 -121.4450 296° West 485 558 38,000  Level FlightAware ADS-B
04:52PM 48.1191 -121.5370 296° West 485 558 38,000  Level FlightAware ADS-B
04:52PM 48.1483 -121.6270 296° West 484 557 38,000  Level FlightAware ADS-B
04:53PM 48.1774 -121.7170 296° West 482 555 38,000  Level FlightAware ADS-B
04:53PM 48.2065 -121.8080 296° West 483 556 38,000  Level FlightAware ADS-B
04:54PM 48.2356 -121.8990 296° West 481 554 38,000  Level FlightAware ADS-B
04:54PM 48.2647 -121.9900 296° West 478 550 38,000  Level FlightAware ADS-B
04:55PM 48.2940 -122.0810 296° West 478 550 38,000  Level FlightAware
04:55PM 48.3094 -122.1310 295° West 478 550 38,000  Level FlightAware ADS-B
04:56PM 48.3534 -122.2700 296° West 480 552 38,000  Level FlightAware ADS-B
04:57PM 48.3821 -122.3610 295° West 479 551 38,000  Level FlightAware ADS-B
04:57PM 48.4128 -122.4590 295° West 480 552 38,000  Level FlightAware ADS-B
04:58PM 48.4410 -122.5490 295° West 479 551 38,000  Level FlightAware ADS-B
04:58PM 48.4777 -122.6670 295° West 478 550 38,000  Level FlightAware ADS-B
04:59PM 48.5058 -122.7580 295° West 477 549 38,000  Level FlightAware ADS-B
04:59PM 48.5343 -122.8500 295° West 480 552 38,000  Level FlightAware ADS-B
05:00PM 48.5623 -122.9410 295° West 481 554 38,000  Level FlightAware ADS-B
05:00PM 48.5905 -123.0340 295° West 480 552 38,000  Level FlightAware ADS-B
05:01PM 48.6184 -123.1250 295° West 481 554 38,000  Level FlightAware ADS-B
05:01PM 48.6468 -123.2190 295° West 482 555 38,000  Level FlightAware ADS-B
05:02PM 48.6851 -123.3450 295° West 482 555 38,000  Level FlightAware ADS-B
05:02PM 48.7083 -123.4220 295° West 480 552 38,000  Level FlightAware ADS-B
05:03PM 48.7560 -123.5550 299° West 485 558 38,000  Level FlightAware
05:04PM 48.7970 -123.6590 301° West 487 560 38,000  Level FlightAware
05:04PM 48.8410 -123.7680 302° West 487 560 38,000  Level FlightAware
05:04PM 48.8532 -123.7990 301° West 487 560 38,000  Level FlightAware ADS-B
05:05PM 48.8882 -123.8880 301° West 488 562 38,000  Level FlightAware ADS-B
05:05PM 48.9230 -123.9750 301° West 487 560 38,000  Level FlightAware ADS-B
05:06PM 48.9804 -124.1210 301° West 486 559 38,000  Level FlightAware ADS-B
05:07PM 49.0155 -124.2100 301° West 487 560 38,000  Level FlightAware ADS-B
05:07PM 49.0513 -124.3020 301° West 488 562 38,000  Level FlightAware ADS-B
05:08PM 49.0859 -124.3910 301° West 489 563 38,000  Level FlightAware ADS-B
05:09PM 49.1618 -124.5860 301° West 489 563 38,000  Level FlightAware ADS-B
05:09PM 49.1971 -124.6780 300° West 490 564 38,000  Level FlightAware ADS-B
05:10PM 49.2367 -124.7810 301° West 491 565 38,000  Level FlightAware ADS-B
05:11PM 49.3160 -124.9870 301° West 494 568 38,000  Level FlightAware
05:12PM 49.3590 -125.1010 300° West 493 567 38,000  Level FlightAware
05:12PM 49.3960 -125.1990 300° West 494 568 38,000  Level FlightAware
05:13PM 49.4340 -125.3000 300° West 494 568 38,000  Level FlightAware
05:14PM 49.4750 -125.4090 300° West 495 570 38,000  Level FlightAware
05:14PM 49.5150 -125.5170 300° West 495 570 38,000  Level FlightAware
05:15PM 49.5560 -125.6260 300° West 496 571 38,000  Level FlightAware
05:15PM 49.5970 -125.7370 300° West 497 572 38,000  Level FlightAware
05:16PM 49.6330 -125.8340 300° West 498 573 38,000  Level FlightAware
05:16PM 49.6740 -125.9470 299° West 497 572 38,000  Level FlightAware
05:17PM 49.7120 -126.0500 300° West 500 575 38,000  Level FlightAware
05:18PM 49.7500 -126.1540 300° West 502 578 38,000  Level FlightAware
05:18PM 49.7910 -126.2670 299° West 502 578 38,000  Level FlightAware
05:19PM 49.8350 -126.3880 299° West 501 577 38,000  Level FlightAware
05:20PM 49.8840 -126.5250 299° West 501 577 38,000  Level FlightAware
05:20PM 49.9180 -126.6220 299° West 501 577 38,000  Level FlightAware
05:21PM 49.9620 -126.7450 299° West 501 577 38,000  Level FlightAware
05:21PM 50.0020 -126.8560 299° West 501 577 38,000  Level FlightAware
05:22PM 50.0460 -126.9810 299° West 501 577 38,000  Level FlightAware
05:23PM 50.0820 -127.0830 299° West 501 577 38,000  Level FlightAware
05:23PM 50.1210 -127.1950 299° West 504 580 38,000  Level FlightAware
05:24PM 50.1610 -127.3090 299° West 504 580 38,000  Level FlightAware
05:25PM 50.2220 -127.4840 299° West 504 580 38,000  Level FlightAware
05:25PM 50.2590 -127.5880 299° West 504 580 38,000  Level FlightAware
05:26PM 50.2930 -127.6850 299° West 504 580 38,000  Level FlightAware
05:27PM 50.3250 -127.8470 287° West 502 578 38,000  Level FlightAware
05:27PM 50.3600 -127.9780 293° West 502 578 38,000  Level FlightAware
05:28PM 50.3890 -128.0830 293° West 502 578 38,000  Level FlightAware
05:29PM 50.4170 -128.1860 293° West 502 578 38,000  Level FlightAware
05:29PM 50.4440 -128.2890 292° West 502 578 38,000  Level FlightAware
05:30PM 50.4730 -128.3940 293° West 502 578 38,000  Level FlightAware
05:30PM 50.5020 -128.5030 293° West 502 578 38,000  Level FlightAware
05:31PM 50.5280 -128.6000 293° West 502 578 38,000  Level FlightAware
05:32PM 50.5560 -128.7030 293° West 502 578 38,000  Level FlightAware
05:32PM 50.5830 -128.8030 293° West 502 578 38,000  Level FlightAware
05:33PM 50.6120 -128.9090 293° West 502 578 38,000  Level FlightAware
05:33PM 50.6390 -129.0120 292° West 502 578 38,000  Level FlightAware
05:34PM 50.6670 -129.1160 293° West 502 578 38,000  Level FlightAware
05:35PM 50.6950 -129.2190 293° West 502 578 38,000  Level FlightAware
05:35PM 50.7230 -129.3220 293° West 502 578 38,000  Level FlightAware
05:36PM 50.7510 -129.4280 293° West 502 578 38,000  Level FlightAware
05:36PM 50.8167 -129.8833 293° West 500 575 38,000  Level Vancouver Center
05:37PM 50.8500 -130.1000 284° West 500 575 38,000  Level Vancouver Center
05:38PM 50.9167 -130.3000 298° West 500 575 38,000  Level Vancouver Center
05:39PM 50.9667 -130.5167 290° West 500 575 38,000  Level Vancouver Center
05:40PM 51.0000 -130.7000 286° West 500 575 38,000  Level Vancouver Center
05:41PM 51.0500 -130.9167 290° West 500 575 38,000  Level Vancouver Center
05:42PM 51.1000 -131.1167 292° West 500 575 38,000  Level Vancouver Center
05:43PM 51.1500 -131.3333 290° West 500 575 38,000  Level Vancouver Center
05:44PM 51.1833 -131.5333 285° West 470 541 38,000  Level Vancouver Center
05:45PM 51.2500 -131.7333 298° West 490 564 38,000  Level Vancouver Center
05:46PM 51.2833 -131.9500 284° West 490 564 38,000  Level Vancouver Center
05:47PM 51.3333 -132.1500 292° West 490 564 38,000  Level Vancouver Center
05:48PM 51.3667 -132.3667 284° West 500 575 38,000  Level Vancouver Center
05:49PM 51.4167 -132.5667 292° West 490 564 38,000  Level Vancouver Center
05:50PM 51.4500 -132.7667 285° West 490 564 38,000  Level Vancouver Center
05:51PM 51.5000 -132.9833 290° West 490 564 38,000  Level Vancouver Center
05:52PM 51.5333 -133.1833 285° West 490 564 38,000  Level Vancouver Center
05:53PM 51.5833 -133.4167 289° West 490 564 38,000  Level Vancouver Center
05:54PM 51.6167 -133.6000 286° West 490 564 38,000  Level Vancouver Center
05:55PM 51.6667 -133.8333 289° West 500 575 38,000  Level Vancouver Center
05:56PM 51.7000 -134.0333 285° West 490 564 38,000  Level Vancouver Center
05:57PM 51.7500 -134.2667 289° West 500 575 38,000  Level Vancouver Center
05:58PM 51.7833 -134.4500 286° West 470 541 38,000  Level Vancouver Center
05:59PM 51.8167 -134.6333 286° West 480 552 38,000  Level Vancouver Center
06:01PM 51.8638 -134.8611 289° West  Level FlightAware Approximate
06:04PM 52.0000 -135.4500 292° West 478 550 38,000  Level Oakland Oceanic (ODAPS)
06:05PM 52.1000 -135.8333 291° West 476 548 38,000  Level Oakland Oceanic (ODAPS)
06:08PM 52.1785 -136.2411 290° West  Level FlightAware Approximate
06:09PM 52.2228 -136.4421 290° West  Level FlightAware Approximate
06:10PM 52.2899 -136.6702 291° West 478 550 38,000  Level FlightAware Transoceanic
06:11PM 52.3370 -136.8751 291° West 478 550 38,000  Level FlightAware Transoceanic
06:12PM 52.3853 -137.0653 290° West 476 548 38,000  Level FlightAware Transoceanic
06:12PM 52.3833 -137.0833 290° West 479 551 38,000  Level Oakland Oceanic (ODAPS)
06:13PM 52.4316 -137.2721 290° West 476 548 38,000  Level FlightAware Transoceanic
06:14PM 52.4775 -137.4794 290° West 476 548 38,000  Level FlightAware Transoceanic
06:15PM 52.5231 -137.6871 290° West 476 548 38,000  Level FlightAware Transoceanic
06:16PM 52.5683 -137.8953 290° West 476 548 38,000  Level FlightAware Transoceanic
06:17PM 52.6131 -138.1039 289° West 476 548 38,000  Level FlightAware Transoceanic
06:18PM 52.6564 -138.3232 289° West 479 551 38,000  Level FlightAware Transoceanic
06:19PM 52.7006 -138.5314 289° West 479 551 38,000  Level FlightAware Transoceanic
06:19PM 52.7333 -138.6500 289° West 477 549 38,000  Level Oakland Oceanic (ODAPS)
06:20PM 52.7445 -138.7399 289° West 479 551 38,000  Level FlightAware Transoceanic
06:21PM 52.7880 -138.9489 289° West 479 551 38,000  Level FlightAware Transoceanic
06:22PM 52.8311 -139.1583 289° West 479 551 38,000  Level FlightAware Transoceanic
06:23PM 52.8739 -139.3681 289° West 479 551 38,000  Level FlightAware Transoceanic
06:24PM 52.9163 -139.5783 288° West 479 551 38,000  Level FlightAware Transoceanic
06:25PM 52.9583 -139.7890 288° West 479 551 38,000  Level FlightAware Transoceanic
06:26PM 53.0000 -140.0000 284° West 477 549 38,000  Level FlightAware Transoceanic
06:26PM 53.0000 -140.0000 284° West 475 547 38,000  Level Oakland Oceanic (ODAPS)
06:27PM 53.0305 -140.2118 283° West 477 549 38,000  Level FlightAware Transoceanic
06:28PM 53.0606 -140.4239 283° West 477 549 38,000  Level FlightAware Transoceanic
06:29PM 53.0903 -140.6362 283° West 477 549 38,000  Level FlightAware Transoceanic
06:30PM 53.1197 -140.8489 283° West 477 549 38,000  Level FlightAware Transoceanic
06:31PM 53.1487 -141.0619 283° West 477 549 38,000  Level FlightAware Transoceanic
06:32PM 53.1773 -141.2751 283° West 475 547 38,000  Level FlightAware Transoceanic
06:33PM 53.2055 -141.4887 282° West 475 547 38,000  Level FlightAware Transoceanic
06:34PM 53.2333 -141.7025 282° West 475 547 38,000  Level FlightAware Transoceanic
06:34PM 53.2167 -141.5833 282° West 482 555 38,000  Level Oakland Oceanic (ODAPS)
06:35PM 53.2608 -141.9165 282° West 475 547 38,000  Level FlightAware Transoceanic
06:36PM 53.2878 -142.1309 282° West 475 547 38,000  Level FlightAware Transoceanic
06:37PM 53.3145 -142.3455 282° West 475 547 38,000  Level FlightAware Transoceanic
06:38PM 53.3408 -142.5604 281° West 475 547 38,000  Level FlightAware Transoceanic
06:39PM 53.3667 -142.7756 281° West 475 547 38,000  Level FlightAware Transoceanic
06:40PM 53.3835 -142.9253 281° West 482 555 38,000  Level FlightAware Transoceanic
06:41PM 53.4099 -143.1500 281° West 482 555 38,000  Level FlightAware Transoceanic
06:42PM 53.4358 -143.3750 281° West 482 555 38,000  Level FlightAware Transoceanic
06:43PM 53.4613 -143.6002 281° West 482 555 38,000  Level FlightAware Transoceanic
06:44PM 53.4863 -143.8257 280° West 482 555 38,000  Level FlightAware Transoceanic
06:45PM 53.5110 -144.0514 280° West 482 555 38,000  Level FlightAware Transoceanic
06:46PM 53.5352 -144.2774 280° West 482 555 38,000  Level FlightAware Transoceanic
06:47PM 53.5590 -144.5037 280° West 482 555 38,000  Level FlightAware Transoceanic
06:47PM 53.5833 -144.6833 280° West 495 570 38,000  Level Oakland Oceanic (ODAPS)
06:48PM 53.5824 -144.7302 280° West 482 555 38,000  Level FlightAware Transoceanic
06:49PM 53.6053 -144.9570 280° West 482 555 38,000  Level FlightAware Transoceanic
06:50PM 53.6278 -145.1840 279° West 482 555 38,000  Level FlightAware Transoceanic
06:51PM 53.6499 -145.4112 279° West 482 555 38,000  Level FlightAware Transoceanic
06:52PM 53.6715 -145.6387 279° West 482 555 38,000  Level FlightAware Transoceanic
06:53PM 53.7095 -146.0022 279° West 495 570 38,000  Level FlightAware Transoceanic
06:54PM 53.7291 -146.2227 278° West 495 570 38,000  Level FlightAware Transoceanic
06:55PM 53.7483 -146.4435 278° West 495 570 38,000  Level FlightAware Transoceanic
06:56PM 53.7671 -146.6644 278° West 495 570 38,000  Level FlightAware Transoceanic
06:57PM 53.7855 -146.8856 278° West 495 570 38,000  Level FlightAware Transoceanic
06:58PM 53.8035 -147.1069 278° West 495 570 38,000  Level FlightAware Transoceanic
06:59PM 53.8211 -147.3284 278° West 495 570 38,000  Level FlightAware Transoceanic
07:00PM 53.8382 -147.5502 277° West 495 570 38,000  Level FlightAware Transoceanic
07:01PM 53.8550 -147.7721 277° West 495 570 38,000  Level FlightAware Transoceanic
07:01PM 53.8667 -147.9000 277° West 501 577 38,000  Level Oakland Oceanic (ODAPS)
07:02PM 53.8713 -147.9941 277° West 495 570 38,000  Level FlightAware Transoceanic
07:03PM 53.8873 -148.2164 277° West 495 570 38,000  Level FlightAware Transoceanic
07:04PM 53.9028 -148.4388 277° West 495 570 38,000  Level FlightAware Transoceanic
07:05PM 53.9179 -148.6614 276° West 495 570 38,000  Level FlightAware Transoceanic
07:06PM 53.9327 -148.8841 276° West 495 570 38,000  Level FlightAware Transoceanic
07:07PM 53.9596 -149.2985 276° West 501 577 38,000  Level FlightAware Transoceanic
07:08PM 53.9735 -149.5322 276° West 501 577 38,000  Level FlightAware Transoceanic
07:09PM 53.9870 -149.7660 275° West 501 577 38,000  Level FlightAware Transoceanic
07:10PM 54.0000 -150.0000 256° West 501 577 38,000  Level FlightAware Transoceanic
07:10PM 54.0000 -150.0000 256° West 499 574 38,000  Level Oakland Oceanic (ODAPS)
07:11PM 53.9678 -150.2130 255° West 501 577 38,000  Level FlightAware Transoceanic
07:12PM 53.9352 -150.4256 255° West 501 577 38,000  Level FlightAware Transoceanic
07:13PM 53.9022 -150.6378 255° West 501 577 38,000  Level FlightAware Transoceanic
07:14PM 53.8689 -150.8498 255° West 501 577 38,000  Level FlightAware Transoceanic
07:15PM 53.8352 -151.0614 255° West 501 577 38,000  Level FlightAware Transoceanic
07:15PM 53.8333 -151.1167 255° West 499 574 38,000  Level Oakland Oceanic (ODAPS)
07:16PM 53.7877 -151.3552 255° West 499 574 38,000  Level FlightAware Transoceanic
07:17PM 53.7508 -151.5797 254° West 499 574 38,000  Level FlightAware Transoceanic
07:18PM 53.7135 -151.8039 254° West 499 574 38,000  Level FlightAware Transoceanic
07:19PM 53.6758 -152.0276 254° West 499 574 38,000  Level FlightAware Transoceanic
07:20PM 53.6377 -152.2509 254° West 499 574 38,000  Level FlightAware Transoceanic
07:21PM 53.6072 -152.4625 254° West 499 574 38,000  Level FlightAware Transoceanic
07:22PM 53.5680 -152.6854 253° West 499 574 38,000  Level FlightAware Transoceanic
07:23PM 53.5284 -152.9078 253° West 499 574 38,000  Level FlightAware Transoceanic
07:24PM 53.4884 -153.1299 253° West 499 574 38,000  Level FlightAware Transoceanic
07:25PM 53.4481 -153.3515 253° West 499 574 38,000  Level FlightAware Transoceanic
07:26PM 53.4073 -153.5727 253° West 499 574 38,000  Level FlightAware Transoceanic
07:27PM 53.3661 -153.7935 253° West 499 574 38,000  Level FlightAware Transoceanic
07:28PM 53.3244 -154.0139 252° West 499 574 38,000  Level FlightAware Transoceanic
07:29PM 53.2824 -154.2338 252° West 499 574 38,000  Level FlightAware Transoceanic
07:29PM 53.2833 -154.2333 252° West 501 577 38,000  Level Oakland Oceanic (ODAPS)
07:30PM 53.2400 -154.4532 252° West 499 574 38,000  Level FlightAware Transoceanic
07:31PM 53.1972 -154.6723 252° West 499 574 38,000  Level FlightAware Transoceanic
07:32PM 53.1539 -154.8909 252° West 499 574 38,000  Level FlightAware Transoceanic
07:33PM 53.1103 -155.1091 251° West 499 574 38,000  Level FlightAware Transoceanic
07:34PM 53.0663 -155.3268 251° West 499 574 38,000  Level FlightAware Transoceanic
07:35PM 53.0226 -155.5438 251° West 501 577 38,000  Level FlightAware Transoceanic
07:36PM 52.9777 -155.7606 251° West 501 577 38,000  Level FlightAware Transoceanic
07:37PM 52.9325 -155.9770 251° West 501 577 38,000  Level FlightAware Transoceanic
07:38PM 52.8868 -156.1929 251° West 501 577 38,000  Level FlightAware Transoceanic
07:39PM 52.8408 -156.4084 250° West 501 577 38,000  Level FlightAware Transoceanic
07:40PM 52.7944 -156.6235 250° West 501 577 38,000  Level FlightAware Transoceanic
07:41PM 52.7476 -156.8380 250° West 501 577 38,000  Level FlightAware Transoceanic
07:42PM 52.7004 -157.0521 250° West 501 577 38,000  Level FlightAware Transoceanic
07:43PM 52.6528 -157.2658 250° West 501 577 38,000  Level FlightAware Transoceanic
07:43PM 52.6500 -157.2333 250° West 488 562 38,000  Level Oakland Oceanic (ODAPS)
07:44PM 52.6049 -157.4789 250° West 501 577 38,000  Level FlightAware Transoceanic
07:45PM 52.5565 -157.6916 249° West 501 577 38,000  Level FlightAware Transoceanic
07:46PM 52.5078 -157.9039 249° West 501 577 38,000  Level FlightAware Transoceanic
07:47PM 52.4587 -158.1156 249° West 501 577 38,000  Level FlightAware Transoceanic
07:48PM 52.4092 -158.3269 249° West 501 577 38,000  Level FlightAware Transoceanic
07:49PM 52.3580 -158.5204 249° West 488 562 38,000  Level FlightAware Transoceanic
07:50PM 52.3080 -158.7332 249° West 488 562 38,000  Level FlightAware Transoceanic
07:51PM 52.2576 -158.9455 249° West 488 562 38,000  Level FlightAware Transoceanic
07:52PM 52.2069 -159.1574 249° West 488 562 38,000  Level FlightAware Transoceanic
07:53PM 52.1557 -159.3688 248° West 488 562 38,000  Level FlightAware Transoceanic
07:54PM 52.1042 -159.5797 248° West 488 562 38,000  Level FlightAware Transoceanic
07:55PM 52.0523 -159.7901 248° West 488 562 38,000  Level FlightAware Transoceanic
07:56PM 52.0000 -160.0000 242° Southwest 488 562 38,000  Level FlightAware Transoceanic
07:56PM 52.0000 -160.0000 242° Southwest 499 574 38,000  Level Oakland Oceanic (ODAPS)
07:56PM 51.9667 -160.1167 242° Southwest 493 567 38,000  Level Oakland Oceanic (ODAPS)
07:57PM 51.9387 -160.1867 242° Southwest 488 562 38,000  Level FlightAware Transoceanic
07:58PM 51.8771 -160.3729 242° Southwest 488 562 38,000  Level FlightAware Transoceanic
07:59PM 51.8152 -160.5586 242° Southwest 488 562 38,000  Level FlightAware Transoceanic
08:00PM 51.7529 -160.7438 241° Southwest 488 562 38,000  Level FlightAware Transoceanic
08:01PM 51.6905 -160.9285 241° Southwest 488 562 38,000  Level FlightAware Transoceanic
08:02PM 51.6071 -161.1729 241° Southwest 499 574 38,000  Level FlightAware Transoceanic
08:03PM 51.5690 -161.2964 241° Southwest 493 567 38,000  Level FlightAware Transoceanic
08:04PM 51.5016 -161.4910 241° Southwest 493 567 38,000  Level FlightAware Transoceanic
08:05PM 51.4339 -161.6850 241° Southwest 493 567 38,000  Level FlightAware Transoceanic
08:06PM 51.3658 -161.8784 241° Southwest 493 567 38,000  Level FlightAware Transoceanic
08:07PM 51.2975 -162.0713 240° Southwest 493 567 38,000  Level FlightAware Transoceanic
08:08PM 51.2288 -162.2636 240° Southwest 493 567 38,000  Level FlightAware Transoceanic
08:09PM 51.1598 -162.4553 240° Southwest 493 567 38,000  Level FlightAware Transoceanic
08:10PM 51.0905 -162.6465 240° Southwest 493 567 38,000  Level FlightAware Transoceanic
08:10PM 51.0500 -162.7500 240° Southwest 483 556 38,000  Level Oakland Oceanic (ODAPS)
08:11PM 51.0208 -162.8371 240° Southwest 493 567 38,000  Level FlightAware Transoceanic
08:12PM 50.9509 -163.0271 240° Southwest 493 567 38,000  Level FlightAware Transoceanic
08:13PM 50.8806 -163.2165 239° Southwest 493 567 38,000  Level FlightAware Transoceanic
08:14PM 50.8101 -163.4053 239° Southwest 493 567 38,000  Level FlightAware Transoceanic
08:15PM 50.7393 -163.5936 239° Southwest 493 567 38,000  Level FlightAware Transoceanic
08:16PM 50.6681 -163.7814 239° Southwest 493 567 38,000  Level FlightAware Transoceanic
08:17PM 50.6327 -163.8681 239° Southwest 483 556 38,000  Level FlightAware Transoceanic
08:18PM 50.5621 -164.0525 239° Southwest 483 556 38,000  Level FlightAware Transoceanic
08:19PM 50.4913 -164.2363 239° Southwest 483 556 38,000  Level FlightAware Transoceanic
08:20PM 50.4201 -164.4196 239° Southwest 483 556 38,000  Level FlightAware Transoceanic
08:21PM 50.3487 -164.6024 238° Southwest 483 556 38,000  Level FlightAware Transoceanic
08:22PM 50.2770 -164.7846 238° Southwest 483 556 38,000  Level FlightAware Transoceanic
08:23PM 50.2049 -164.9662 238° Southwest 483 556 38,000  Level FlightAware Transoceanic
08:24PM 50.1326 -165.1474 238° Southwest 483 556 38,000  Level FlightAware Transoceanic
08:25PM 50.0601 -165.3279 238° Southwest 483 556 38,000 960 Level FlightAware Transoceanic
08:25PM 50.1167 -165.1833 238° Southwest 469 540 39,000  Climbing Oakland Oceanic (ODAPS)
08:26PM 49.9872 -165.5079 238° Southwest 483 556 38,000 -540 Descending FlightAware Transoceanic
08:27PM 49.9141 -165.6874 238° Southwest 483 556 38,000  Level FlightAware Transoceanic
08:28PM 49.8407 -165.8663 237° Southwest 483 556 38,000  Level FlightAware Transoceanic
08:29PM 49.7670 -166.0447 237° Southwest 483 556 38,000  Level FlightAware Transoceanic
08:30PM 49.6930 -166.2225 237° Southwest 483 556 38,000 480 Level FlightAware Transoceanic
08:31PM 49.6410 -166.3441 237° Southwest 469 540 39,000 480 Climbing FlightAware Transoceanic
08:32PM 49.5721 -166.5081 237° Southwest 469 540 39,000  Level FlightAware Transoceanic
08:33PM 49.5029 -166.6716 237° Southwest 469 540 39,000  Level FlightAware Transoceanic
08:34PM 49.4336 -166.8347 237° Southwest 469 540 39,000  Level FlightAware Transoceanic
08:35PM 49.3640 -166.9973 237° Southwest 469 540 39,000  Level FlightAware Transoceanic
08:36PM 49.2942 -167.1594 236° Southwest 469 540 39,000  Level FlightAware Transoceanic
08:37PM 49.2241 -167.3210 236° Southwest 469 540 39,000  Level FlightAware Transoceanic
08:38PM 49.1539 -167.4822 236° Southwest 469 540 39,000  Level FlightAware Transoceanic
08:39PM 49.0834 -167.6430 236° Southwest 469 540 39,000  Level FlightAware Transoceanic
08:40PM 49.0127 -167.8033 236° Southwest 469 540 39,000  Level FlightAware Transoceanic
08:41PM 48.9417 -167.9631 236° Southwest 469 540 39,000  Level FlightAware Transoceanic
08:41PM 49.1500 -167.5000 236° Southwest 468 539 39,000  Level Oakland Oceanic (ODAPS)
08:42PM 48.8706 -168.1225 236° Southwest 469 540 39,000  Level FlightAware Transoceanic
08:43PM 48.7992 -168.2814 236° Southwest 469 540 39,000  Level FlightAware Transoceanic
08:44PM 48.7276 -168.4399 236° Southwest 469 540 39,000  Level FlightAware Transoceanic
08:45PM 48.6558 -168.5979 235° Southwest 469 540 39,000  Level FlightAware Transoceanic
08:46PM 48.5838 -168.7555 235° Southwest 469 540 39,000  Level FlightAware Transoceanic
08:47PM 48.5098 -168.9202 235° Southwest 468 539 39,000  Level FlightAware Transoceanic
08:48PM 48.4376 -169.0758 235° Southwest 468 539 39,000  Level FlightAware Transoceanic
08:49PM 48.3652 -169.2309 235° Southwest 468 539 39,000  Level FlightAware Transoceanic
08:50PM 48.2925 -169.3856 235° Southwest 468 539 39,000  Level FlightAware Transoceanic
08:51PM 48.2197 -169.5399 235° Southwest 468 539 39,000  Level FlightAware Transoceanic
08:52PM 48.1467 -169.6937 234° Southwest 468 539 39,000  Level FlightAware Transoceanic
08:52PM 48.1167 -169.7500 235° Southwest 472 543 39,000  Level Oakland Oceanic (ODAPS)
08:53PM 48.0734 -169.8471 234° Southwest 468 539 39,000  Level FlightAware Transoceanic
08:53PM 48.0000 -170.0000 250° West 471 542 39,000  Level Oakland Oceanic (ODAPS)
08:54PM 48.0000 -170.0000 250° West 468 539 39,000  Level FlightAware Transoceanic
08:55PM 47.9551 -170.1848 250° West 468 539 39,000  Level FlightAware Transoceanic
08:56PM 47.9100 -170.3693 250° West 468 539 39,000  Level FlightAware Transoceanic
08:57PM 47.8645 -170.5535 250° West 468 539 39,000  Level FlightAware Transoceanic
08:58PM 47.8188 -170.7374 250° West 472 543 39,000  Level FlightAware Transoceanic
08:59PM 47.7728 -170.9209 249° West 472 543 39,000  Level FlightAware Transoceanic
09:00PM 47.7264 -171.1041 249° West 471 542 39,000  Level FlightAware Transoceanic
09:01PM 47.6798 -171.2870 249° West 471 542 39,000  Level FlightAware Transoceanic
09:02PM 47.6329 -171.4695 249° West 471 542 39,000  Level FlightAware Transoceanic
09:03PM 47.5857 -171.6517 249° West 471 542 39,000  Level FlightAware Transoceanic
09:04PM 47.5382 -171.8336 249° West 471 542 39,000  Level FlightAware Transoceanic
09:05PM 47.4904 -172.0152 249° West 471 542 39,000  Level FlightAware Transoceanic
09:06PM 47.4424 -172.1964 249° West 471 542 39,000  Level FlightAware Transoceanic
09:06PM 47.4333 -172.2500 248° West 474 545 39,000  Level Oakland Oceanic (ODAPS)
09:07PM 47.3940 -172.3773 248° West 471 542 39,000  Level FlightAware Transoceanic
09:08PM 47.3454 -172.5579 248° West 471 542 39,000  Level FlightAware Transoceanic
09:09PM 47.2965 -172.7381 248° West 471 542 39,000  Level FlightAware Transoceanic
09:10PM 47.2473 -172.9180 248° West 471 542 39,000  Level FlightAware Transoceanic
09:11PM 47.1978 -173.0976 248° West 471 542 39,000  Level FlightAware Transoceanic
09:12PM 47.1398 -173.3228 248° West 474 545 39,000  Level FlightAware Transoceanic
09:13PM 47.0899 -173.5005 248° West 474 545 39,000  Level FlightAware Transoceanic
09:14PM 47.0397 -173.6778 247° West 474 545 39,000  Level FlightAware Transoceanic
09:15PM 46.9893 -173.8548 247° West 474 545 39,000  Level FlightAware Transoceanic
09:16PM 46.9386 -174.0314 247° West 474 545 39,000  Level FlightAware Transoceanic
09:17PM 46.8876 -174.2077 247° West 474 545 39,000  Level FlightAware Transoceanic
09:18PM 46.8363 -174.3837 247° West 474 545 39,000  Level FlightAware Transoceanic
09:19PM 46.7848 -174.5593 247° West 474 545 39,000  Level FlightAware Transoceanic
09:20PM 46.7330 -174.7346 247° West 474 545 39,000  Level FlightAware Transoceanic
09:21PM 46.6810 -174.9096 246° West 474 545 39,000  Level FlightAware Transoceanic
09:22PM 46.6287 -175.0842 246° West 474 545 39,000  Level FlightAware Transoceanic
09:23PM 46.5761 -175.2585 246° West 474 545 39,000  Level FlightAware Transoceanic
09:23PM 46.7333 -174.7167 247° West 473 544 39,000  Level Oakland Oceanic (ODAPS)
09:24PM 46.5232 -175.4324 246° West 474 545 39,000  Level FlightAware Transoceanic
09:25PM 46.4701 -175.6060 246° West 474 545 39,000  Level FlightAware Transoceanic
09:26PM 46.4167 -175.7793 246° West 474 545 39,000  Level FlightAware Transoceanic
09:27PM 46.3631 -175.9522 246° West 474 545 39,000  Level FlightAware Transoceanic
09:28PM 46.3092 -176.1248 246° West 474 545 39,000  Level FlightAware Transoceanic
09:29PM 46.2554 -176.2845 246° West 473 544 39,000  Level FlightAware Transoceanic
09:30PM 46.2010 -176.4570 245° Southwest 473 544 39,000  Level FlightAware Transoceanic
09:31PM 46.1463 -176.6291 245° Southwest 473 544 39,000  Level FlightAware Transoceanic
09:32PM 46.0914 -176.8009 245° Southwest 473 544 39,000  Level FlightAware Transoceanic
09:33PM 46.0362 -176.9724 245° Southwest 473 544 39,000 480 Level FlightAware Transoceanic
09:33PM 45.9833 -177.1167 245° Southwest 469 540 40,000  Climbing Oakland Oceanic (ODAPS)
09:34PM 45.9808 -177.1435 245° Southwest 473 544 39,000 -1,020 Descending FlightAware Transoceanic
09:35PM 45.9250 -177.3143 245° Southwest 473 544 39,000  Level FlightAware Transoceanic
09:36PM 45.8691 -177.4847 245° Southwest 473 544 39,000  Level FlightAware Transoceanic
09:37PM 45.8129 -177.6548 245° Southwest 473 544 39,000  Level FlightAware Transoceanic
09:38PM 45.7564 -177.8246 244° Southwest 473 544 39,000  Level FlightAware Transoceanic
09:39PM 45.6997 -177.9940 244° Southwest 473 544 39,000 480 Level FlightAware Transoceanic
09:40PM 45.6446 -178.1458 244° Southwest 469 540 40,000 480 Climbing FlightAware Transoceanic
09:41PM 45.5872 -178.3161 244° Southwest 469 540 40,000  Level FlightAware Transoceanic
09:42PM 45.5296 -178.4861 244° Southwest 469 540 40,000  Level FlightAware Transoceanic
09:43PM 45.4718 -178.6557 244° Southwest 469 540 40,000  Level FlightAware Transoceanic
09:44PM 45.4137 -178.8249 244° Southwest 469 540 40,000  Level FlightAware Transoceanic
09:45PM 45.3553 -178.9939 244° Southwest 469 540 40,000  Level FlightAware Transoceanic
09:46PM 45.2967 -179.1624 244° Southwest 469 540 40,000  Level FlightAware Transoceanic
09:47PM 45.2379 -179.3306 244° Southwest 469 540 40,000  Level FlightAware Transoceanic
09:48PM 45.1788 -179.4985 243° Southwest 469 540 40,000  Level FlightAware Transoceanic
09:48PM 45.2000 -179.4333 244° Southwest 474 545 40,000  Level Oakland Oceanic (ODAPS)
09:49PM 45.1194 -179.6660 243° Southwest 469 540 40,000  Level FlightAware Transoceanic
09:50PM 45.0598 -179.8332 243° Southwest 469 540 40,000  Level FlightAware Transoceanic
09:51PM 45.0000 -180.0000 258° West 469 540 40,000  Level FlightAware Transoceanic
09:51PM 45.0000 180.0000 258° West 479 551 40,000  Level Oakland Oceanic (ODAPS)
09:52PM 44.9726 179.8190 258° West 469 540 40,000  Level FlightAware Transoceanic
09:53PM 44.9449 179.6382 258° West 469 540 40,000  Level FlightAware Transoceanic
09:54PM 44.9169 179.4576 258° West 474 545 40,000  Level FlightAware Transoceanic
09:55PM 44.8887 179.2772 257° West 474 545 40,000  Level FlightAware Transoceanic
09:56PM 44.8601 179.0970 257° West 474 545 40,000  Level FlightAware Transoceanic
09:57PM 44.8313 178.9169 257° West 474 545 40,000  Level FlightAware Transoceanic
09:58PM 44.7985 178.7145 257° West 479 551 40,000  Level FlightAware Transoceanic
09:59PM 44.7686 178.5316 257° West 479 551 40,000  Level FlightAware Transoceanic
10:00PM 44.7383 178.3489 257° West 479 551 40,000  Level FlightAware Transoceanic
10:01PM 44.7078 178.1664 257° West 479 551 40,000  Level FlightAware Transoceanic
10:01PM 44.7000 178.1000 257° West 476 548 40,000  Level Oakland Oceanic (ODAPS)
10:02PM 44.6770 177.9841 257° West 479 551 40,000  Level FlightAware Transoceanic
10:03PM 44.6459 177.8019 256° West 479 551 40,000  Level FlightAware Transoceanic
10:04PM 44.6145 177.6200 256° West 479 551 40,000  Level FlightAware Transoceanic
10:05PM 44.5828 177.4383 256° West 479 551 40,000  Level FlightAware Transoceanic
10:06PM 44.5508 177.2567 256° West 479 551 40,000  Level FlightAware Transoceanic
10:07PM 44.5185 177.0754 256° West 479 551 40,000  Level FlightAware Transoceanic
10:08PM 44.5112 177.0180 256° West 476 548 40,000  Level FlightAware Transoceanic
10:09PM 44.4787 176.8384 256° West 476 548 40,000  Level FlightAware Transoceanic
10:10PM 44.4460 176.6589 256° West 476 548 40,000  Level FlightAware Transoceanic
10:11PM 44.4130 176.4797 255° West 476 548 40,000  Level FlightAware Transoceanic
10:12PM 44.3797 176.3006 255° West 476 548 40,000  Level FlightAware Transoceanic
10:13PM 44.3461 176.1218 255° West 476 548 40,000  Level FlightAware Transoceanic
10:14PM 44.3122 175.9432 255° West 476 548 40,000  Level FlightAware Transoceanic
10:15PM 44.2781 175.7648 255° West 476 548 40,000  Level FlightAware Transoceanic
10:15PM 44.2500 175.6333 255° West 470 541 40,000  Level Oakland Oceanic (ODAPS)
10:16PM 44.2437 175.5865 255° West 476 548 40,000  Level FlightAware Transoceanic
10:17PM 44.2090 175.4085 255° West 476 548 40,000  Level FlightAware Transoceanic
10:18PM 44.1740 175.2307 255° West 476 548 40,000  Level FlightAware Transoceanic
10:19PM 44.1388 175.0532 254° West 476 548 40,000  Level FlightAware Transoceanic
10:20PM 44.1032 174.8758 254° West 476 548 40,000  Level FlightAware Transoceanic
10:21PM 44.0675 174.6986 254° West 476 548 40,000  Level FlightAware Transoceanic
10:22PM 44.0082 174.4191 254° West 470 541 40,000  Level FlightAware Transoceanic
10:23PM 43.9726 174.2464 254° West 470 541 40,000  Level FlightAware Transoceanic
10:24PM 43.9367 174.0740 254° West 470 541 40,000  Level FlightAware Transoceanic
10:25PM 43.9006 173.9017 254° West 470 541 40,000  Level FlightAware Transoceanic
10:26PM 43.8642 173.7297 254° West 470 541 40,000  Level FlightAware Transoceanic
10:27PM 43.8276 173.5579 253° West 470 541 40,000  Level FlightAware Transoceanic
10:28PM 43.7907 173.3863 253° West 470 541 40,000  Level FlightAware Transoceanic
10:29PM 43.7536 173.2149 253° West 470 541 40,000  Level FlightAware Transoceanic
10:29PM 43.7667 173.2667 253° West 466 536 40,000  Level Oakland Oceanic (ODAPS)
10:30PM 43.7162 173.0437 253° West 470 541 40,000  Level FlightAware Transoceanic
10:31PM 43.6785 172.8728 253° West 470 541 40,000  Level FlightAware Transoceanic
10:32PM 43.6406 172.7020 253° West 470 541 40,000  Level FlightAware Transoceanic
10:33PM 43.6024 172.5315 253° West 470 541 40,000  Level FlightAware Transoceanic
10:34PM 43.5640 172.3612 253° West 470 541 40,000  Level FlightAware Transoceanic
10:35PM 43.5465 172.2780 253° West 466 536 40,000  Level FlightAware Transoceanic
10:36PM 43.5089 172.1140 252° West 466 536 40,000  Level FlightAware Transoceanic
10:37PM 43.4712 171.9501 252° West 466 536 40,000  Level FlightAware Transoceanic
10:38PM 43.4332 171.7865 252° West 466 536 40,000  Level FlightAware Transoceanic
10:39PM 43.3950 171.6230 252° West 466 536 40,000  Level FlightAware Transoceanic
10:40PM 43.3565 171.4598 252° West 466 536 40,000  Level FlightAware Transoceanic
10:41PM 43.3178 171.2967 252° West 466 536 40,000  Level FlightAware Transoceanic
10:42PM 43.2789 171.1339 252° West 466 536 40,000  Level FlightAware Transoceanic
10:43PM 43.2397 170.9713 252° West 466 536 40,000 660 Level FlightAware Transoceanic
10:43PM 43.2333 170.9333 251° West 447 514 41,000  Climbing Oakland Oceanic (ODAPS)
10:44PM 43.2004 170.8089 252° West 466 536 40,000 -660 Descending FlightAware Transoceanic
10:45PM 43.1607 170.6467 251° West 466 536 40,000  Level FlightAware Transoceanic
10:46PM 43.1209 170.4847 251° West 466 536 40,000  Level FlightAware Transoceanic
10:47PM 43.0808 170.3229 251° West 466 536 40,000  Level FlightAware Transoceanic
10:48PM 43.0405 170.1613 251° West 466 536 40,000 480 Level FlightAware Transoceanic
10:49PM 43.0000 170.0000 252° West 447 514 41,000 780 Climbing FlightAware Transoceanic
10:49PM 43.0000 170.0000 252° West 455 524 41,000  Level Oakland Oceanic (ODAPS)
10:50PM 42.9594 169.8342 251° West 447 514 41,000  Level FlightAware Transoceanic
10:51PM 42.9185 169.6685 251° West 447 514 41,000  Level FlightAware Transoceanic
10:52PM 42.8774 169.5031 251° West 447 514 41,000  Level FlightAware Transoceanic
10:53PM 42.8360 169.3379 251° West 447 514 41,000  Level FlightAware Transoceanic
10:54PM 42.7944 169.1729 251° West 447 514 41,000  Level FlightAware Transoceanic
10:55PM 42.7566 169.0236 251° West 455 524 41,000  Level FlightAware Transoceanic
10:56PM 42.7152 168.8616 251° West 455 524 41,000  Level FlightAware Transoceanic
10:57PM 42.6736 168.6999 251° West 455 524 41,000  Level FlightAware Transoceanic
10:57PM 42.6667 168.7000 251° West 456 525 41,000  Level Oakland Oceanic (ODAPS)
10:58PM 42.6317 168.5383 251° West 455 524 41,000  Level FlightAware Transoceanic
10:59PM 42.5897 168.3770 250° West 455 524 41,000  Level FlightAware Transoceanic
11:00PM 42.5474 168.2159 250° West 455 524 41,000  Level FlightAware Transoceanic
11:01PM 42.5049 168.0550 250° West 455 524 41,000  Level FlightAware Transoceanic
11:02PM 42.4622 167.8943 250° West 455 524 41,000  Level FlightAware Transoceanic
11:03PM 42.4130 167.7341 250° West 456 525 41,000  Level FlightAware Transoceanic
11:04PM 42.3700 167.5739 250° West 456 525 41,000  Level FlightAware Transoceanic
11:05PM 42.3267 167.4139 250° West 456 525 41,000  Level FlightAware Transoceanic
11:06PM 42.2832 167.2541 250° West 456 525 41,000  Level FlightAware Transoceanic
11:07PM 42.2395 167.0945 250° West 456 525 41,000  Level FlightAware Transoceanic
11:08PM 42.1955 166.9352 250° West 456 525 41,000  Level FlightAware Transoceanic
11:09PM 42.1513 166.7761 249° West 456 525 41,000  Level FlightAware Transoceanic
11:10PM 42.1070 166.6172 249° West 456 525 41,000  Level FlightAware Transoceanic
11:11PM 42.0624 166.4585 249° West 456 525 41,000  Level FlightAware Transoceanic
11:11PM 42.0833 166.5167 249° West 456 525 41,000  Level Oakland Oceanic (ODAPS)
11:12PM 42.0175 166.3001 249° West 456 525 41,000  Level FlightAware Transoceanic
11:13PM 41.9725 166.1418 249° West 456 525 41,000  Level FlightAware Transoceanic
11:14PM 41.9272 165.9839 249° West 456 525 41,000  Level FlightAware Transoceanic
11:15PM 41.8818 165.8261 249° West 456 525 41,000  Level FlightAware Transoceanic
11:16PM 41.8361 165.6685 249° West 456 525 41,000  Level FlightAware Transoceanic
11:17PM 41.8086 165.5606 249° West 456 525 41,000  Level FlightAware Transoceanic
11:18PM 41.7620 165.4020 248° West 456 525 41,000  Level FlightAware Transoceanic
11:19PM 41.7152 165.2437 248° West 456 525 41,000  Level FlightAware Transoceanic
11:20PM 41.6682 165.0856 248° West 456 525 41,000  Level FlightAware Transoceanic
11:21PM 41.6210 164.9278 248° West 456 525 41,000  Level FlightAware Transoceanic
11:22PM 41.5736 164.7701 248° West 456 525 41,000  Level FlightAware Transoceanic
11:23PM 41.5259 164.6127 248° West 456 525 41,000  Level FlightAware Transoceanic
11:24PM 41.4781 164.4556 248° West 456 525 41,000  Level FlightAware Transoceanic
11:25PM 41.4300 164.2987 248° West 456 525 41,000  Level FlightAware Transoceanic
11:26PM 41.3817 164.1420 248° West 456 525 41,000  Level FlightAware Transoceanic
11:27PM 41.3332 163.9855 248° West 456 525 41,000  Level FlightAware Transoceanic
11:28PM 41.2845 163.8293 247° West 456 525 41,000  Level FlightAware Transoceanic
11:29PM 41.2356 163.6733 247° West 456 525 41,000  Level FlightAware Transoceanic
11:30PM 41.1865 163.5175 247° West 456 525 41,000  Level FlightAware Transoceanic
11:31PM 41.1371 163.3620 247° West 456 525 41,000  Level FlightAware Transoceanic
11:32PM 41.0876 163.2067 247° West 456 525 41,000  Level FlightAware Transoceanic
11:33PM 41.0378 163.0516 247° West 456 525 41,000  Level FlightAware Transoceanic
11:34PM 40.9879 162.8968 247° West 456 525 41,000  Level FlightAware Transoceanic
11:35PM 40.9377 162.7422 247° West 456 525 41,000  Level FlightAware Transoceanic
11:36PM 40.8873 162.5879 247° West 456 525 41,000  Level FlightAware Transoceanic
11:37PM 40.8367 162.4338 246° West 456 525 41,000  Level FlightAware Transoceanic
11:38PM 40.7859 162.2799 246° West 456 525 41,000  Level FlightAware Transoceanic
11:39PM 40.7349 162.1262 246° West 456 525 41,000  Level FlightAware Transoceanic
11:40PM 40.6837 161.9728 246° West 456 525 41,000  Level FlightAware Transoceanic
11:41PM 40.6323 161.8197 246° West 456 525 41,000  Level FlightAware Transoceanic
11:42PM 40.5807 161.6667 246° West 456 525 41,000  Level FlightAware Transoceanic
11:43PM 40.5289 161.5140 246° West 456 525 41,000  Level FlightAware Transoceanic
11:44PM 40.4769 161.3615 246° West 456 525 41,000  Level FlightAware Transoceanic
11:45PM 40.4247 161.2093 246° West 456 525 41,000  Level FlightAware Transoceanic
11:46PM 40.3723 161.0573 246° West 456 525 41,000  Level FlightAware Transoceanic
11:47PM 40.3197 160.9056 245° Southwest 456 525 41,000  Level FlightAware Transoceanic
11:48PM 40.2669 160.7540 245° Southwest 456 525 41,000  Level FlightAware Transoceanic
11:49PM 40.2139 160.6028 245° Southwest 456 525 41,000  Level FlightAware Transoceanic
11:50PM 40.1608 160.4517 245° Southwest 456 525 41,000  Level FlightAware Transoceanic
11:51PM 40.1074 160.3009 245° Southwest 456 525 41,000  Level FlightAware Transoceanic
11:52PM 40.0538 160.1503 245° Southwest 456 525 41,000  Level FlightAware Transoceanic
11:53PM 40.0000 160.0000 252° West 456 525 41,000  Level FlightAware Transoceanic
11:54PM 39.9599 159.8374 252° West 456 525 41,000  Level FlightAware Transoceanic
11:55PM 39.9195 159.6751 252° West 456 525 41,000  Level FlightAware Transoceanic
11:56PM 39.8789 159.5129 252° West 456 525 41,000  Level FlightAware Transoceanic
11:57PM 39.8381 159.3509 252° West 456 525 41,000  Level FlightAware Transoceanic
11:58PM 39.7971 159.1891 252° West 456 525 41,000  Level FlightAware Transoceanic
11:59PM 39.7559 159.0276 252° West 456 525 41,000  Level FlightAware Transoceanic
12:00AM 39.7144 158.8661 251° West 456 525 41,000  Level FlightAware Transoceanic
12:01AM 39.6727 158.7050 251° West 456 525 41,000  Level FlightAware Transoceanic
12:02AM 39.6307 158.5439 251° West 456 525 41,000  Level FlightAware Transoceanic
12:03AM 39.5886 158.3831 251° West 456 525 41,000  Level FlightAware Transoceanic
12:04AM 39.5462 158.2225 251° West 456 525 41,000  Level FlightAware Transoceanic
12:05AM 39.5036 158.0621 251° West 456 525 41,000  Level FlightAware Transoceanic
12:06AM 39.4608 157.9019 251° West 456 525 41,000  Level FlightAware Transoceanic
12:07AM 39.4178 157.7418 251° West 456 525 41,000  Level FlightAware Transoceanic
12:08AM 39.3745 157.5820 251° West 456 525 41,000  Level FlightAware Transoceanic
12:09AM 39.3311 157.4224 251° West 456 525 41,000  Level FlightAware Transoceanic
12:10AM 39.2874 157.2629 250° West 456 525 41,000  Level FlightAware Transoceanic
12:11AM 39.2435 157.1037 250° West 456 525 41,000  Level FlightAware Transoceanic
12:12AM 39.1994 156.9447 250° West 456 525 41,000  Level FlightAware Transoceanic
12:13AM 39.1550 156.7858 250° West 456 525 41,000  Level FlightAware Transoceanic
12:14AM 39.1105 156.6272 250° West 456 525 41,000  Level FlightAware Transoceanic
12:15AM 39.0657 156.4688 250° West 456 525 41,000  Level FlightAware Transoceanic
12:16AM 39.0207 156.3105 250° West 456 525 41,000  Level FlightAware Transoceanic
12:17AM 38.9756 156.1525 250° West 456 525 41,000  Level FlightAware Transoceanic
12:18AM 38.9302 155.9947 250° West 456 525 41,000  Level FlightAware Transoceanic
12:19AM 38.8845 155.8371 250° West 456 525 41,000  Level FlightAware Transoceanic
12:20AM 38.8387 155.6796 249° West 456 525 41,000  Level FlightAware Transoceanic
12:21AM 38.7927 155.5224 249° West 456 525 41,000  Level FlightAware Transoceanic
12:22AM 38.7464 155.3654 249° West 456 525 41,000  Level FlightAware Transoceanic
12:23AM 38.7000 155.2086 249° West 456 525 41,000  Level FlightAware Transoceanic
12:24AM 38.6533 155.0520 249° West 456 525 41,000  Level FlightAware Transoceanic
12:25AM 38.6064 154.8956 249° West 456 525 41,000  Level FlightAware Transoceanic
12:26AM 38.5593 154.7394 249° West 456 525 41,000  Level FlightAware Transoceanic
12:27AM 38.5120 154.5834 249° West 456 525 41,000  Level FlightAware Transoceanic
12:28AM 38.4646 154.4276 249° West 456 525 41,000  Level FlightAware Transoceanic
12:29AM 38.4168 154.2720 249° West 456 525 41,000  Level FlightAware Transoceanic
12:30AM 38.3689 154.1167 248° West 456 525 41,000  Level FlightAware Transoceanic
12:31AM 38.3208 153.9615 248° West 456 525 41,000  Level FlightAware Transoceanic
12:32AM 38.2725 153.8065 248° West 456 525 41,000  Level FlightAware Transoceanic
12:33AM 38.2240 153.6518 248° West 456 525 41,000  Level FlightAware Transoceanic
12:34AM 38.1753 153.4972 248° West 456 525 41,000  Level FlightAware Transoceanic
12:35AM 38.1263 153.3429 248° West 456 525 41,000  Level FlightAware Transoceanic
12:36AM 38.0772 153.1887 248° West 456 525 41,000  Level FlightAware Transoceanic
12:37AM 38.0279 153.0348 248° West 456 525 41,000  Level FlightAware Transoceanic
12:38AM 37.9783 152.8811 248° West 456 525 41,000  Level FlightAware Transoceanic
12:39AM 37.9286 152.7276 248° West 456 525 41,000  Level FlightAware Transoceanic
12:40AM 37.8787 152.5742 248° West 456 525 41,000  Level FlightAware Transoceanic
12:41AM 37.8285 152.4212 247° West 456 525 41,000  Level FlightAware Transoceanic
12:42AM 37.7782 152.2683 247° West 456 525 41,000  Level FlightAware Transoceanic
12:43AM 37.7277 152.1156 247° West 456 525 41,000  Level FlightAware Transoceanic
12:44AM 37.6770 151.9631 247° West 456 525 41,000  Level FlightAware Transoceanic
12:45AM 37.6261 151.8109 247° West 456 525 41,000  Level FlightAware Transoceanic
12:46AM 37.5749 151.6588 247° West 456 525 41,000  Level FlightAware Transoceanic
12:47AM 37.5236 151.5069 247° West 456 525 41,000  Level FlightAware Transoceanic
12:48AM 37.4721 151.3553 247° West 456 525 41,000  Level FlightAware Transoceanic
12:49AM 37.4204 151.2039 247° West 456 525 41,000  Level FlightAware Transoceanic
12:50AM 37.3686 151.0527 247° West 456 525 41,000  Level FlightAware Transoceanic
12:51AM 37.3165 150.9017 247° West 456 525 41,000  Level FlightAware Transoceanic
12:52AM 37.2642 150.7509 246° West 456 525 41,000  Level FlightAware Transoceanic
12:53AM 37.2117 150.6003 246° West 456 525 41,000  Level FlightAware Transoceanic
12:54AM 37.1591 150.4499 246° West 456 525 41,000  Level FlightAware Transoceanic
12:55AM 37.1063 150.2997 246° West 456 525 41,000  Level FlightAware Transoceanic
12:56AM 37.0532 150.1497 246° West 456 525 41,000  Level FlightAware Transoceanic
12:57AM 37.0006 150.0016 246° West  Level FlightAware Approximate
12:58AM 36.9480 149.8535 246° West  Level FlightAware Approximate
12:59AM 36.9889 149.8421 265° West  Level FlightAware Approximate
01:00AM 36.9774 149.6806 265° West  Level FlightAware Approximate
01:01AM 36.9656 149.5193 265° West  Level FlightAware Approximate
01:02AM 36.9536 149.3580 265° West  Level FlightAware Approximate
01:03AM 36.9414 149.1967 265° West  Level FlightAware Approximate
01:04AM 36.9290 149.0355 265° West  Level FlightAware Approximate
01:05AM 36.9163 148.8743 264° West  Level FlightAware Approximate
01:06AM 36.9035 148.7133 264° West  Level FlightAware Approximate
01:07AM 36.8904 148.5522 264° West  Level FlightAware Approximate
01:08AM 36.8678 148.3933 255° West  Level FlightAware Approximate
01:09AM 36.8346 148.2370 255° West  Level FlightAware Approximate
01:10AM 36.8012 148.0807 255° West  Level FlightAware Approximate
01:11AM 36.7676 147.9246 255° West  Level FlightAware Approximate
01:12AM 36.7338 147.7687 255° West  Level FlightAware Approximate
01:13AM 36.6998 147.6129 255° West  Level FlightAware Approximate
01:14AM 36.6656 147.4572 255° West  Level FlightAware Approximate
01:15AM 36.6311 147.3016 255° West  Level FlightAware Approximate
01:16AM 36.5965 147.1460 255° West  Level FlightAware Approximate
01:17AM 36.5616 146.9905 254° West  Level FlightAware Approximate
01:18AM 36.5265 146.8352 254° West  Level FlightAware Approximate
01:19AM 36.4912 146.6799 254° West  Level FlightAware Approximate
01:20AM 36.4557 146.5249 254° West  Level FlightAware Approximate
01:21AM 36.4201 146.3699 254° West  Level FlightAware Approximate
01:22AM 36.3788 146.2174 248° West  Level FlightAware Approximate
01:23AM 36.3306 146.0680 248° West  Level FlightAware Approximate
01:24AM 36.2823 145.9187 248° West  Level FlightAware Approximate
01:25AM 36.2337 145.7697 248° West  Level FlightAware Approximate
01:26AM 36.1882 145.6193 253° West  Level FlightAware Approximate
01:27AM 36.1499 145.4659 259° West  Level FlightAware Approximate
01:28AM 36.1247 145.3085 259° West  Level FlightAware Approximate
01:29AM 36.0992 145.1511 259° West  Level FlightAware Approximate
01:29AM 36.0210 144.6710 259° West 476 548 41,000  Level FlightAware
01:29AM 36.0050 144.5640 260° West 476 548 41,000  Level FlightAware
01:30AM 35.9900 144.4630 260° West 974 1121 41,000  Level FlightAware
01:31AM 35.9770 144.3640 261° West 478 550 41,000  Level FlightAware
01:31AM 35.9650 144.2770 260° West 478 550 41,000  Level FlightAware
01:32AM 35.9550 144.1950 261° West 478 550 41,000  Level FlightAware
01:32AM 35.9440 144.1100 261° West 478 550 41,000  Level FlightAware
01:33AM 35.9330 144.0270 261° West 478 550 41,000  Level FlightAware
01:34AM 35.9060 143.8690 258° West 481 554 41,000  Level FlightAware
01:34AM 35.8930 143.7880 259° West 480 552 41,000  Level FlightAware
01:35AM 35.8710 143.6370 260° West 479 551 41,000  Level FlightAware
01:36AM 35.8580 143.5550 259° West 479 551 41,000  Level FlightAware
01:36AM 35.8450 143.4710 259° West 479 551 41,000 -360 Level FlightAware
01:37AM 35.8270 143.3350 261° West 934 1075 40,600 -1,500 Descending FlightAware
01:37AM 35.8160 143.2580 260° West 465 535 39,300 -4,140 Descending FlightAware
01:38AM 35.8000 143.1530 259° West 475 547 35,800 -4,020 Descending FlightAware
01:39AM 35.7830 143.0360 260° West 482 555 33,700 -1,560 Descending FlightAware
01:39AM 35.7710 142.9540 260° West 482 555 33,700  Level FlightAware
01:40AM 35.7590 142.8710 260° West 482 555 33,700  Level FlightAware
01:41AM 35.7470 142.7880 260° West 482 555 33,700  Level FlightAware
01:41AM 35.7350 142.7030 260° West 482 555 33,700  Level FlightAware
01:42AM 35.7230 142.6200 260° West 482 555 33,700  Level FlightAware
01:42AM 35.7110 142.5350 260° West 482 555 33,700  Level FlightAware
01:43AM 35.6990 142.4500 260° West 482 555 33,700  Level FlightAware
01:44AM 35.6860 142.3630 260° West 482 555 33,700 -12,360 Level FlightAware
01:44AM 35.6550 142.2170 255° West 426 490 19,500 -12,540 Descending FlightAware
01:45AM 35.6430 142.1420 259° West 426 490 19,500  Level FlightAware
01:45AM 35.6320 142.0700 259° West 426 490 19,500  Level FlightAware
01:46AM 35.6200 141.9970 259° West 426 490 19,500  Level FlightAware
01:47AM 35.6080 141.9220 259° West 426 490 19,500  Level FlightAware
01:47AM 35.5970 141.8490 260° West 426 490 19,500 -2,340 Level FlightAware
01:48AM 35.5820 141.7420 260° West 339 390 16,000 -2,760 Descending FlightAware
01:49AM 35.5780 141.6740 266° West 335 386 15,400 -1,200 Descending FlightAware
01:49AM 35.5740 141.5990 266° West 331 381 14,600 -1,080 Descending FlightAware
01:50AM 35.5700 141.5370 265° West 325 374 14,200 -540 Descending FlightAware
01:51AM 35.5780 141.4720 279° West 325 374 14,000 -660 Descending FlightAware
01:51AM 35.6070 141.4050 298° West 325 374 13,400 -1,020 Descending FlightAware
01:52AM 35.6330 141.3470 299° West 330 380 12,800 -960 Descending FlightAware
01:52AM 35.6620 141.2840 300° West 321 369 12,300 -900 Descending FlightAware
01:53AM 35.6830 141.2370 299° West 317 365 11,800 -900 Descending FlightAware
01:54AM 35.7110 141.1730 298° West 298 343 11,300 -780 Descending FlightAware
01:54AM 35.7360 141.1180 299° West 305 351 10,800 -1,020 Descending FlightAware
01:55AM 35.7640 141.0550 299° West 277 319 10,000 -1,140 Descending FlightAware
01:55AM 35.7760 141.0280 299° West 279 321 9,600 -900 Descending FlightAware
01:56AM 35.7890 140.9930 295° West 270 311 9,300 -420 Descending FlightAware
01:56AM 35.8000 140.9620 294° West 265 305 9,300  Level FlightAware
01:56AM 35.8050 140.9460 291° West 262 302 9,300  Level FlightAware
01:57AM 35.8180 140.9100 294° West 264 304 9,300  Level FlightAware
01:57AM 35.8280 140.8820 294° West 257 296 9,300  Level FlightAware
01:57AM 35.8370 140.8550 292° West 260 299 9,300  Level FlightAware
01:58AM 35.8450 140.8340 295° West 261 300 9,300  Level FlightAware
01:58AM 35.8570 140.7980 292° West 258 297 9,300 -300 Level FlightAware
01:58AM 35.8630 140.7820 295° West 257 296 9,100 -1,140 Descending FlightAware
01:59AM 35.8730 140.7520 292° West 258 297 8,700 -1,200 Descending FlightAware
01:59AM 35.8850 140.7190 294° West 257 296 8,300 -600 Descending FlightAware
01:59AM 35.8940 140.6930 293° West 255 293 8,300  Level FlightAware
02:00AM 35.8990 140.6770 291° West 256 295 8,300 -360 Level FlightAware
02:00AM 35.9090 140.6470 292° West 253 291 8,100 -840 Descending FlightAware
02:00AM 35.9190 140.6180 293° West 251 289 7,700 -960 Descending FlightAware
02:01AM 35.9290 140.5890 293° West 253 291 7,400 -900 Descending FlightAware
02:01AM 35.9350 140.5710 292° West 253 291 7,200 -1,080 Descending FlightAware
02:01AM 35.9450 140.5440 295° West 254 292 6,800 -1,320 Descending FlightAware
02:01AM 35.9500 140.5280 291° West 255 293 6,500 -840 Descending FlightAware
02:02AM 35.9610 140.4950 292° West 254 292 6,300 -780 Descending FlightAware
02:02AM 35.9620 140.4830 276° West 254 292 6,100 -1,440 Descending FlightAware
02:02AM 35.9630 140.4650 274° West 255 293 5,800 -1,140 Descending FlightAware
02:02AM 35.9640 140.4360 272° West 259 298 5,500 -780 Descending FlightAware
02:03AM 35.9650 140.4070 272° West 256 295 5,300 -480 Descending FlightAware
02:03AM 35.9660 140.3800 273° West 247 284 5,200 -600 Descending FlightAware
02:03AM 35.9680 140.3480 274° West 240 276 4,900 -840 Descending FlightAware
02:04AM 35.9680 140.3300 270° West 234 269 4,700 -540 Descending FlightAware
02:04AM 35.9630 140.2930 261° West 216 249 4,500 -600 Descending FlightAware
02:05AM 35.9480 140.2750 224° Southwest 209 241 4,200 -840 Descending FlightAware
02:05AM 35.9440 140.2720 211° Southwest 210 242 4,200 -480 Level FlightAware
02:05AM 35.9350 140.2700 190° South 208 239 4,100 -660 Descending FlightAware
02:05AM 35.9180 140.2690 183° South 200 230 3,900 -720 Descending FlightAware
02:06AM 35.8970 140.2800 157° South 188 216 3,600 -960 Descending FlightAware
02:06AM 35.8820 140.2900 152° Southeast 186 214 3,200 -1,080 Descending FlightAware
02:06AM 35.8670 140.3010 149° Southeast 188 216 2,900 -1,080 Descending FlightAware
02:07AM 35.8530 140.3120 148° Southeast 179 206 2,500 -1,500 Descending FlightAware
02:07AM 35.8390 140.3220 150° Southeast 170 196 1,900 -1,680 Descending FlightAware
02:07AM 35.8270 140.3300 152° Southeast 158 182 1,500 -960 Descending FlightAware
02:08AM 35.8140 140.3400 148° Southeast 153 176 1,300 -720 Descending FlightAware
02:08AM 35.8070 140.3450 150° Southeast 154 177 1,100 -780 Descending FlightAware
02:08AM 35.7950 140.3540 149° Southeast 149 171 900 -720 Descending FlightAware
02:08AM 35.7810 140.3630 152° Southeast 145 167 600 -360 Descending FlightAware
02:09AM 35.7650 140.3750 149° Southeast 146 168 600  Level FlightAware
02:12AM 35.7500 140.3833 253° West  Level FlightAware Approximate
02:13AM 35.7647 140.3864 253° West  Level Estimated
02:14AM 35.7647 140.3864 253° West  Level Estimated